Time;durP1;ratioP1;P1;durP2;ratioP2;P2;SDS_P1;SDS_P2;PMS_P1;PMS_P2;Temp;Humidity;BMP_temperature;BMP_pressure;BME280_temperature;BME280_humidity;BME280_pressure;Samples;Min_cycle;Max_cycle;Signal;HPM_P1;HPM_P2
2022/03/13 00:00:34;;;;;;;17.67;9.50;;;;;;;;;;4972315;28;90132;-68
2022/03/13 00:03:01;;;;;;;16.45;10.30;;;;;;;;;;4972934;28;88987;-68
2022/03/13 00:05:27;;;;;;;15.95;9.70;;;;;;;;;;4965701;28;89361;-68
2022/03/13 00:07:56;;;;;;;17.52;10.23;;;;;;;;;;4973484;28;91116;-68
2022/03/13 00:10:27;;;;;;;12.95;9.38;;;;;;;;;;4972217;28;90283;-67
2022/03/13 00:12:54;;;;;;;12.80;10.20;;;;;;;;;;4972800;28;90219;-68
2022/03/13 00:15:31;;;;;;;14.05;9.82;;;;;;;;;;4972826;28;89837;-67
2022/03/13 00:17:59;;;;;;;17.08;10.45;;;;;;;;;;4963805;28;89108;-68
2022/03/13 00:20:27;;;;;;;15.10;9.38;;;;;;;;;;4964118;28;89120;-67
2022/03/13 00:22:54;;;;;;;16.00;10.60;;;;;;;;;;4970188;28;90934;-68
2022/03/13 00:25:20;;;;;;;14.85;9.77;;;;;;;;;;4972913;28;90304;-67
2022/03/13 00:27:47;;;;;;;15.82;9.50;;;;;;;;;;4974215;28;90116;-67
2022/03/13 00:30:13;;;;;;;13.32;9.05;;;;;;;;;;4968293;28;89335;-67
2022/03/13 00:32:39;;;;;;;20.95;9.85;;;;;;;;;;4970954;28;89218;-67
2022/03/13 00:35:06;;;;;;;13.98;9.07;;;;;;;;;;4976250;28;88855;-67
2022/03/13 00:37:32;;;;;;;14.23;9.23;;;;;;;;;;4975501;28;88908;-68
2022/03/13 00:40:00;;;;;;;11.80;8.75;;;;;;;;;;4959437;28;88040;-67
2022/03/13 00:42:27;;;;;;;13.45;8.95;;;;;;;;;;4962204;28;89044;-68
2022/03/13 00:44:53;;;;;;;12.90;8.63;;;;;;;;;;4974435;28;88664;-69
2022/03/13 00:47:20;;;;;;;11.00;8.38;;;;;;;;;;4967932;28;87995;-67
2022/03/13 00:49:47;;;;;;;16.92;8.05;;;;;;;;;;4973233;28;88905;-68
2022/03/13 00:52:14;;;;;;;12.38;8.40;;;;;;;;;;4969634;28;89235;-68
2022/03/13 00:54:40;;;;;;;10.88;8.10;;;;;;;;;;4977097;28;88271;-68
2022/03/13 00:57:06;;;;;;;10.45;7.72;;;;;;;;;;4973985;28;89410;-68
2022/03/13 00:59:33;;;;;;;9.65;6.85;;;;;;;;;;4957540;28;88089;-68
2022/03/13 01:01:59;;;;;;;12.02;7.18;;;;;;;;;;4974548;28;88739;-68
2022/03/13 01:04:26;;;;;;;9.85;7.35;;;;;;;;;;4976814;28;89136;-68
2022/03/13 01:06:52;;;;;;;10.32;7.25;;;;;;;;;;4969731;28;88028;-67
2022/03/13 01:09:18;;;;;;;9.95;7.03;;;;;;;;;;4967346;28;88610;-67
2022/03/13 01:11:45;;;;;;;9.13;6.05;;;;;;;;;;4975633;28;88735;-68
2022/03/13 01:14:12;;;;;;;10.38;6.85;;;;;;;;;;4967239;28;88345;-68
2022/03/13 01:16:39;;;;;;;8.98;6.13;;;;;;;;;;4975469;28;90183;-67
2022/03/13 01:19:07;;;;;;;9.30;6.13;;;;;;;;;;4971513;28;87876;-67
2022/03/13 01:21:34;;;;;;;9.40;6.20;;;;;;;;;;4971245;28;89088;-68
2022/03/13 01:24:00;;;;;;;9.38;6.03;;;;;;;;;;4969706;28;89555;-67
2022/03/13 01:26:27;;;;;;;10.75;6.07;;;;;;;;;;4968917;28;88824;-67
2022/03/13 01:28:56;;;;;;;7.35;6.05;;;;;;;;;;4976580;28;89988;-68
2022/03/13 01:31:26;;;;;;;6.88;5.55;;;;;;;;;;4972210;28;89237;-67
2022/03/13 01:33:52;;;;;;;10.30;6.47;;;;;;;;;;4976826;28;88406;-67
2022/03/13 01:36:19;;;;;;;7.93;6.50;;;;;;;;;;4979475;28;88756;-67
2022/03/13 01:38:45;;;;;;;8.85;5.65;;;;;;;;;;4975462;28;88064;-67
2022/03/13 01:41:11;;;;;;;9.18;6.18;;;;;;;;;;4973923;28;88799;-67
2022/03/13 01:43:38;;;;;;;10.38;6.90;;;;;;;;;;4976302;28;88076;-67
2022/03/13 01:46:04;;;;;;;9.48;5.90;;;;;;;;;;4972414;28;88108;-67
2022/03/13 01:48:38;;;;;;;6.57;5.70;;;;;;;;;;4975470;28;88627;-68
2022/03/13 01:51:05;;;;;;;10.90;6.10;;;;;;;;;;4969298;28;89836;-67
2022/03/13 01:53:32;;;;;;;9.70;5.90;;;;;;;;;;4975520;28;88203;-67
2022/03/13 01:55:58;;;;;;;7.93;5.47;;;;;;;;;;4974029;28;88564;-68
2022/03/13 01:58:25;;;;;;;11.10;6.20;;;;;;;;;;4978339;28;89687;-68
2022/03/13 02:00:51;;;;;;;11.35;6.47;;;;;;;;;;4974144;28;89705;-69
2022/03/13 02:03:18;;;;;;;11.50;5.95;;;;;;;;;;4972519;28;89692;-68
2022/03/13 02:05:44;;;;;;;9.38;6.28;;;;;;;;;;4967612;28;88218;-68
2022/03/13 02:08:18;;;;;;;7.30;5.88;;;;;;;;;;4976532;28;88761;-68
2022/03/13 02:10:45;;;;;;;8.13;6.20;;;;;;;;;;4972081;28;89281;-67
2022/03/13 02:13:13;;;;;;;9.77;6.00;;;;;;;;;;4971484;28;88649;-68
2022/03/13 02:15:39;;;;;;;8.00;5.95;;;;;;;;;;4962171;28;89205;-67
2022/03/13 02:18:06;;;;;;;7.57;6.32;;;;;;;;;;4975753;28;90296;-67
2022/03/13 02:20:39;;;;;;;9.35;6.78;;;;;;;;;;4977270;28;89751;-68
2022/03/13 02:23:13;;;;;;;11.25;6.55;;;;;;;;;;4968663;28;89134;-67
2022/03/13 02:25:40;;;;;;;8.65;6.07;;;;;;;;;;4972979;28;88293;-67
2022/03/13 02:28:11;;;;;;;15.38;6.25;;;;;;;;;;4962610;28;88766;-67
2022/03/13 02:30:37;;;;;;;8.13;6.43;;;;;;;;;;4963594;28;89327;-67
2022/03/13 02:33:03;;;;;;;8.57;6.28;;;;;;;;;;4972810;28;88096;-67
2022/03/13 02:35:30;;;;;;;7.63;6.50;;;;;;;;;;4971505;28;88097;-67
2022/03/13 02:37:56;;;;;;;8.50;5.70;;;;;;;;;;4975285;28;89080;-67
2022/03/13 02:40:24;;;;;;;8.10;6.28;;;;;;;;;;4975303;28;89799;-68
2022/03/13 02:42:51;;;;;;;9.52;6.20;;;;;;;;;;4973372;28;90864;-68
2022/03/13 02:45:28;;;;;;;9.48;6.68;;;;;;;;;;4970646;28;88093;-68
2022/03/13 02:47:54;;;;;;;9.60;6.85;;;;;;;;;;4967248;28;89369;-68
2022/03/13 02:50:22;;;;;;;10.18;6.68;;;;;;;;;;4968664;28;88902;-67
2022/03/13 02:52:49;;;;;;;12.15;6.90;;;;;;;;;;4970992;28;88164;-68
2022/03/13 02:55:15;;;;;;;8.85;6.90;;;;;;;;;;4973090;28;88756;-68
2022/03/13 02:57:41;;;;;;;10.93;6.82;;;;;;;;;;4972639;28;87913;-68
2022/03/13 03:00:08;;;;;;;12.70;7.30;;;;;;;;;;4964369;28;88782;-68
2022/03/13 03:02:35;;;;;;;12.63;7.57;;;;;;;;;;4964389;28;89842;-68
2022/03/13 03:05:06;;;;;;;9.43;7.55;;;;;;;;;;4957928;28;88995;-68
2022/03/13 03:07:33;;;;;;;18.70;7.60;;;;;;;;;;4957639;28;88351;-68
2022/03/13 03:09:59;;;;;;;13.00;8.40;;;;;;;;;;4973257;28;88808;-68
2022/03/13 03:12:25;;;;;;;10.88;7.60;;;;;;;;;;4962232;28;88119;-68
2022/03/13 03:14:52;;;;;;;10.80;8.05;;;;;;;;;;4973926;28;88923;-68
2022/03/13 03:17:18;;;;;;;12.10;8.20;;;;;;;;;;4972788;28;89128;-67
2022/03/13 03:19:44;;;;;;;12.10;8.90;;;;;;;;;;4973767;28;88080;-68
2022/03/13 03:22:12;;;;;;;14.68;8.50;;;;;;;;;;4959271;28;88883;-68
2022/03/13 03:24:38;;;;;;;12.63;8.15;;;;;;;;;;4960854;28;88707;-68
2022/03/13 03:27:05;;;;;;;15.23;8.45;;;;;;;;;;4974145;28;90409;-67
2022/03/13 03:29:31;;;;;;;11.52;8.02;;;;;;;;;;4975067;28;89433;-67
2022/03/13 03:31:57;;;;;;;12.82;8.88;;;;;;;;;;4974160;28;88351;-68
2022/03/13 03:34:25;;;;;;;13.60;8.70;;;;;;;;;;4961623;28;88775;-68
2022/03/13 03:36:53;;;;;;;12.00;8.73;;;;;;;;;;4971416;28;89114;-68
2022/03/13 03:39:20;;;;;;;10.35;8.38;;;;;;;;;;4956431;28;88051;-68
2022/03/13 03:41:47;;;;;;;15.20;9.18;;;;;;;;;;4966403;28;88678;-67
2022/03/13 03:44:14;;;;;;;15.68;8.70;;;;;;;;;;4975379;28;93227;-67
2022/03/13 03:46:41;;;;;;;12.85;9.00;;;;;;;;;;4965912;28;88111;-68
2022/03/13 03:49:07;;;;;;;18.00;9.15;;;;;;;;;;4956020;28;91958;-67
2022/03/13 03:51:34;;;;;;;12.82;9.52;;;;;;;;;;4970168;28;88162;-67
2022/03/13 03:54:01;;;;;;;13.60;9.70;;;;;;;;;;4973823;28;88819;-67
2022/03/13 03:56:27;;;;;;;17.77;9.07;;;;;;;;;;4975066;28;89673;-67
2022/03/13 03:58:53;;;;;;;15.55;9.40;;;;;;;;;;4958957;28;88227;-68
2022/03/13 04:01:20;;;;;;;11.40;9.27;;;;;;;;;;4973723;28;88165;-67
2022/03/13 04:03:46;;;;;;;13.68;9.48;;;;;;;;;;4960228;28;88935;-68
2022/03/13 04:06:12;;;;;;;18.95;10.05;;;;;;;;;;4965871;28;91647;-67
2022/03/13 04:08:39;;;;;;;20.63;9.93;;;;;;;;;;4978051;28;89117;-68
2022/03/13 04:11:08;;;;;;;15.13;10.57;;;;;;;;;;4977240;28;90143;-69
2022/03/13 04:13:38;;;;;;;17.45;10.65;;;;;;;;;;4975973;28;90682;-68
2022/03/13 04:16:06;;;;;;;20.08;11.02;;;;;;;;;;4976506;28;89633;-68
2022/03/13 04:18:32;;;;;;;15.93;11.20;;;;;;;;;;4976912;28;90482;-68
2022/03/13 04:20:59;;;;;;;16.73;11.45;;;;;;;;;;4969923;28;89571;-68
2022/03/13 04:23:26;;;;;;;17.98;12.52;;;;;;;;;;4968198;28;88922;-68
2022/03/13 04:25:53;;;;;;;15.48;11.48;;;;;;;;;;4976815;28;91627;-68
2022/03/13 04:28:19;;;;;;;20.92;12.13;;;;;;;;;;4970847;28;89562;-68
2022/03/13 04:30:47;;;;;;;20.05;12.77;;;;;;;;;;4979235;28;89173;-69
2022/03/13 04:33:16;;;;;;;19.65;12.90;;;;;;;;;;4967356;28;91705;-68
2022/03/13 04:35:42;;;;;;;18.52;13.30;;;;;;;;;;4972767;28;88952;-68
2022/03/13 04:38:08;;;;;;;23.77;13.82;;;;;;;;;;4973935;28;89873;-68
2022/03/13 04:40:35;;;;;;;18.20;13.57;;;;;;;;;;4972428;28;89506;-68
2022/03/13 04:43:02;;;;;;;18.55;13.05;;;;;;;;;;4975768;28;89808;-68
2022/03/13 04:45:29;;;;;;;19.02;13.73;;;;;;;;;;4972539;28;91535;-68
2022/03/13 04:47:55;;;;;;;27.00;14.20;;;;;;;;;;4976221;28;92454;-67
2022/03/13 04:50:21;;;;;;;20.45;12.82;;;;;;;;;;4976698;28;89167;-68
2022/03/13 04:52:48;;;;;;;22.30;13.80;;;;;;;;;;4966332;28;89860;-68
2022/03/13 04:55:15;;;;;;;19.38;13.82;;;;;;;;;;4964691;28;89353;-68
2022/03/13 04:57:41;;;;;;;18.98;13.43;;;;;;;;;;4969404;28;91320;-68
2022/03/13 05:00:08;;;;;;;20.45;13.45;;;;;;;;;;4976649;28;90634;-68
2022/03/13 05:02:35;;;;;;;18.98;14.30;;;;;;;;;;4969282;28;89195;-67
2022/03/13 05:05:01;;;;;;;20.38;14.35;;;;;;;;;;4973501;28;90734;-68
2022/03/13 05:07:28;;;;;;;20.38;15.40;;;;;;;;;;4974396;28;89623;-68
2022/03/13 05:09:54;;;;;;;20.70;13.95;;;;;;;;;;4974773;28;92137;-68
2022/03/13 05:12:29;;;;;;;20.58;14.07;;;;;;;;;;4971125;28;90199;-68
2022/03/13 05:14:55;;;;;;;21.42;14.35;;;;;;;;;;4975743;28;89056;-68
2022/03/13 05:17:22;;;;;;;26.08;15.57;;;;;;;;;;4964726;28;90284;-68
2022/03/13 05:19:48;;;;;;;20.80;14.43;;;;;;;;;;4975751;28;89988;-68
2022/03/13 05:22:15;;;;;;;22.30;14.23;;;;;;;;;;4974610;28;89053;-68
2022/03/13 05:24:41;;;;;;;25.88;15.15;;;;;;;;;;4976426;28;91992;-67
2022/03/13 05:27:08;;;;;;;24.92;15.45;;;;;;;;;;4975701;28;89513;-67
2022/03/13 05:29:34;;;;;;;23.27;15.30;;;;;;;;;;4960230;28;88920;-67
2022/03/13 05:32:00;;;;;;;21.73;14.68;;;;;;;;;;4970324;28;89678;-67
2022/03/13 05:34:27;;;;;;;21.85;16.55;;;;;;;;;;4977748;28;89619;-67
2022/03/13 05:36:53;;;;;;;22.15;15.43;;;;;;;;;;4969321;28;90025;-68
2022/03/13 05:39:20;;;;;;;21.92;15.68;;;;;;;;;;4966559;28;90080;-68
2022/03/13 05:41:46;;;;;;;25.63;15.13;;;;;;;;;;4975435;28;89423;-68
2022/03/13 05:44:13;;;;;;;23.27;15.65;;;;;;;;;;4975181;28;90349;-68
2022/03/13 05:46:39;;;;;;;23.38;15.35;;;;;;;;;;4968522;28;89735;-68
2022/03/13 05:49:08;;;;;;;23.52;15.15;;;;;;;;;;4975742;28;89181;-68
2022/03/13 05:51:37;;;;;;;21.83;15.35;;;;;;;;;;4970637;28;89854;-68
2022/03/13 05:54:03;;;;;;;30.02;16.92;;;;;;;;;;4972608;28;89534;-68
2022/03/13 05:56:30;;;;;;;24.52;16.95;;;;;;;;;;4974438;28;90144;-68
2022/03/13 05:58:56;;;;;;;22.63;16.73;;;;;;;;;;4972163;28;89696;-68
2022/03/13 06:01:22;;;;;;;28.42;17.10;;;;;;;;;;4972170;28;90664;-68
2022/03/13 06:03:53;;;;;;;28.00;17.23;;;;;;;;;;4961245;28;91205;-68
2022/03/13 06:06:20;;;;;;;30.55;17.67;;;;;;;;;;4966168;28;89454;-68
2022/03/13 06:08:46;;;;;;;25.38;17.42;;;;;;;;;;4965847;28;89211;-67
2022/03/13 06:11:13;;;;;;;27.27;16.42;;;;;;;;;;4966646;28;89825;-68
2022/03/13 06:13:39;;;;;;;21.52;16.90;;;;;;;;;;4968882;28;89411;-67
2022/03/13 06:16:09;;;;;;;30.38;17.00;;;;;;;;;;4974955;28;89327;-68
2022/03/13 06:18:35;;;;;;;23.10;16.40;;;;;;;;;;4976911;28;91018;-68
2022/03/13 06:21:05;;;;;;;24.50;17.75;;;;;;;;;;4973785;28;90485;-68
2022/03/13 06:23:32;;;;;;;24.38;17.35;;;;;;;;;;4975142;28;89871;-69
2022/03/13 06:25:59;;;;;;;23.27;16.73;;;;;;;;;;4971514;28;89590;-69
2022/03/13 06:28:26;;;;;;;23.77;14.85;;;;;;;;;;4966324;28;88987;-68
2022/03/13 06:30:55;;;;;;;24.08;15.98;;;;;;;;;;4975072;28;89884;-69
2022/03/13 06:33:22;;;;;;;36.67;16.55;;;;;;;;;;4974596;28;90521;-68
2022/03/13 06:35:49;;;;;;;21.92;14.98;;;;;;;;;;4965526;28;89070;-68
2022/03/13 06:38:15;;;;;;;24.80;15.25;;;;;;;;;;4973563;28;90018;-67
2022/03/13 06:40:41;;;;;;;24.83;15.98;;;;;;;;;;4974024;28;89581;-68
2022/03/13 06:43:08;;;;;;;24.42;15.38;;;;;;;;;;4966291;28;89491;-67
2022/03/13 06:45:34;;;;;;;24.40;14.82;;;;;;;;;;4965557;28;89600;-67
2022/03/13 06:48:00;;;;;;;23.67;15.10;;;;;;;;;;4974245;28;89747;-68
2022/03/13 06:50:27;;;;;;;21.23;14.63;;;;;;;;;;4974663;28;90249;-67
2022/03/13 06:52:53;;;;;;;24.45;15.27;;;;;;;;;;4974764;28;89402;-68
2022/03/13 06:55:21;;;;;;;20.58;14.57;;;;;;;;;;4971345;28;89386;-68
2022/03/13 06:57:49;;;;;;;23.17;14.82;;;;;;;;;;4966496;28;91181;-68
2022/03/13 07:00:16;;;;;;;18.70;14.05;;;;;;;;;;4955249;28;90708;-68
2022/03/13 07:02:46;;;;;;;26.95;14.98;;;;;;;;;;4960127;28;89050;-67
2022/03/13 07:05:13;;;;;;;26.08;15.38;;;;;;;;;;4969914;28;90538;-68
2022/03/13 07:07:39;;;;;;;25.98;15.48;;;;;;;;;;4974146;28;89257;-67
2022/03/13 07:10:11;;;;;;;19.70;13.75;;;;;;;;;;4994263;28;90527;-68
2022/03/13 07:12:38;;;;;;;23.33;15.02;;;;;;;;;;4980905;28;91078;-68
2022/03/13 07:15:05;;;;;;;26.63;15.82;;;;;;;;;;4974859;28;89233;-68
2022/03/13 07:17:31;;;;;;;24.10;15.68;;;;;;;;;;4961614;28;90346;-68
2022/03/13 07:19:58;;;;;;;26.05;15.70;;;;;;;;;;4955094;28;89711;-67
2022/03/13 07:22:24;;;;;;;27.73;14.73;;;;;;;;;;4976182;28;89156;-68
2022/03/13 07:24:50;;;;;;;19.67;14.35;;;;;;;;;;4974365;28;89412;-69
2022/03/13 07:27:16;;;;;;;21.50;14.32;;;;;;;;;;4960857;28;88939;-67
2022/03/13 07:29:43;;;;;;;22.90;14.10;;;;;;;;;;4956252;28;90194;-67
2022/03/13 07:32:09;;;;;;;21.77;14.77;;;;;;;;;;4965228;28;89374;-68
2022/03/13 07:34:37;;;;;;;18.98;13.88;;;;;;;;;;4965823;28;90921;-67
2022/03/13 07:37:03;;;;;;;23.08;14.70;;;;;;;;;;4963253;28;89719;-68
2022/03/13 07:39:29;;;;;;;18.48;14.02;;;;;;;;;;4974721;28;89404;-68
2022/03/13 07:41:56;;;;;;;20.02;13.55;;;;;;;;;;4979165;28;89283;-67
2022/03/13 07:44:22;;;;;;;19.85;13.43;;;;;;;;;;4976739;28;90318;-67
2022/03/13 07:46:49;;;;;;;21.38;13.25;;;;;;;;;;4977721;28;89366;-69
2022/03/13 07:49:15;;;;;;;22.08;14.15;;;;;;;;;;4977889;28;91371;-68
2022/03/13 07:51:43;;;;;;;24.38;14.48;;;;;;;;;;4977133;28;89420;-68
2022/03/13 07:54:10;;;;;;;19.02;12.85;;;;;;;;;;4976554;28;89051;-68
2022/03/13 07:56:37;;;;;;;23.90;13.43;;;;;;;;;;4977530;28;89675;-68
2022/03/13 07:59:04;;;;;;;18.02;13.07;;;;;;;;;;4969712;28;90022;-67
2022/03/13 08:01:30;;;;;;;18.75;13.75;;;;;;;;;;4961661;28;89644;-67
2022/03/13 08:03:56;;;;;;;21.42;13.68;;;;;;;;;;4968160;28;90380;-68
2022/03/13 08:06:23;;;;;;;22.88;13.25;;;;;;;;;;4978697;28;89947;-68
2022/03/13 08:08:50;;;;;;;20.27;13.65;;;;;;;;;;4976600;28;90160;-67
2022/03/13 08:11:16;;;;;;;37.17;13.98;;;;;;;;;;4973055;28;89520;-67
2022/03/13 08:13:42;;;;;;;24.77;14.50;;;;;;;;;;4973942;28;93851;-67
2022/03/13 08:16:09;;;;;;;23.20;14.02;;;;;;;;;;4965353;28;91772;-67
2022/03/13 08:18:37;;;;;;;23.88;13.77;;;;;;;;;;4975181;28;92672;-67
2022/03/13 08:21:03;;;;;;;21.05;13.32;;;;;;;;;;4967297;28;93831;-69
2022/03/13 08:23:30;;;;;;;21.17;13.30;;;;;;;;;;4972718;28;94897;-69
2022/03/13 08:25:56;;;;;;;18.33;12.85;;;;;;;;;;4956308;28;95329;-69
2022/03/13 08:28:23;;;;;;;17.60;12.50;;;;;;;;;;4977040;28;93322;-69
2022/03/13 08:30:55;;;;;;;22.13;14.60;;;;;;;;;;4971789;28;93373;-69
2022/03/13 08:33:21;;;;;;;23.30;14.82;;;;;;;;;;4974366;28;93812;-69
2022/03/13 08:35:47;;;;;;;21.08;13.60;;;;;;;;;;4973737;28;92560;-69
2022/03/13 08:38:13;;;;;;;21.50;14.05;;;;;;;;;;4973937;28;93209;-67
2022/03/13 08:40:40;;;;;;;19.13;13.02;;;;;;;;;;4973770;28;94057;-67
2022/03/13 08:43:06;;;;;;;21.83;13.15;;;;;;;;;;4973760;28;92487;-67
2022/03/13 08:45:32;;;;;;;19.60;14.07;;;;;;;;;;4971862;28;93017;-67
2022/03/13 08:47:59;;;;;;;17.83;12.55;;;;;;;;;;4964235;28;95821;-66
2022/03/13 08:50:25;;;;;;;23.73;13.43;;;;;;;;;;4958283;28;92464;-67
2022/03/13 08:52:51;;;;;;;21.15;12.68;;;;;;;;;;4953764;28;93399;-66
2022/03/13 08:55:23;;;;;;;22.35;12.95;;;;;;;;;;4957601;28;92887;-67
2022/03/13 08:57:49;;;;;;;19.40;12.77;;;;;;;;;;4966689;28;93457;-67
2022/03/13 09:00:16;;;;;;;22.33;12.48;;;;;;;;;;4968771;28;94008;-67
2022/03/13 09:02:44;;;;;;;20.60;13.77;;;;;;;;;;4963145;28;92900;-67
2022/03/13 09:05:11;;;;;;;25.65;13.27;;;;;;;;;;4973417;28;92943;-66
2022/03/13 09:07:37;;;;;;;24.30;13.73;;;;;;;;;;4970166;28;95367;-67
2022/03/13 09:10:05;;;;;;;19.75;13.68;;;;;;;;;;4974077;28;92371;-67
2022/03/13 09:12:32;;;;;;;15.80;11.43;;;;;;;;;;4975533;28;94843;-67
2022/03/13 09:14:59;;;;;;;23.80;12.27;;;;;;;;;;4972731;28;92780;-67
2022/03/13 09:17:25;;;;;;;17.00;11.30;;;;;;;;;;4963788;28;93014;-68
2022/03/13 09:19:51;;;;;;;21.90;12.63;;;;;;;;;;4966894;28;93511;-68
2022/03/13 09:22:18;;;;;;;18.25;12.05;;;;;;;;;;4967735;28;93705;-68
2022/03/13 09:24:45;;;;;;;18.25;12.57;;;;;;;;;;4963515;28;94119;-68
2022/03/13 09:27:12;;;;;;;24.58;12.65;;;;;;;;;;4955465;28;93235;-68
2022/03/13 09:29:38;;;;;;;21.27;12.50;;;;;;;;;;4955008;28;91767;-68
2022/03/13 09:32:05;;;;;;;20.15;13.00;;;;;;;;;;4964857;28;92523;-68
2022/03/13 09:34:32;;;;;;;25.00;12.48;;;;;;;;;;4973262;28;92422;-68
2022/03/13 09:36:59;;;;;;;18.67;13.18;;;;;;;;;;4956940;28;95286;-68
2022/03/13 09:39:29;;;;;;;25.30;13.82;;;;;;;;;;4954441;28;93197;-68
2022/03/13 09:41:56;;;;;;;17.70;12.95;;;;;;;;;;4967501;28;92401;-69
2022/03/13 09:44:24;;;;;;;17.58;11.85;;;;;;;;;;4973455;28;93135;-69
2022/03/13 09:46:51;;;;;;;16.50;11.90;;;;;;;;;;4961710;28;93547;-69
2022/03/13 09:49:20;;;;;;;19.75;13.02;;;;;;;;;;4969042;28;92500;-69
2022/03/13 09:51:46;;;;;;;18.77;12.18;;;;;;;;;;4973170;28;93323;-70
2022/03/13 09:54:13;;;;;;;18.10;12.80;;;;;;;;;;4976232;28;92501;-70
2022/03/13 09:56:40;;;;;;;21.08;13.13;;;;;;;;;;4959248;28;92524;-70
2022/03/13 09:59:07;;;;;;;17.75;13.15;;;;;;;;;;4961051;28;93753;-70
2022/03/13 10:01:33;;;;;;;20.67;12.98;;;;;;;;;;4958580;28;94842;-70
2022/03/13 10:04:00;;;;;;;18.88;13.90;;;;;;;;;;4959837;28;98680;-71
2022/03/13 10:06:28;;;;;;;19.67;13.48;;;;;;;;;;4964488;28;93483;-70
2022/03/13 10:08:55;;;;;;;25.08;13.27;;;;;;;;;;4964264;28;93387;-70
2022/03/13 10:11:33;;;;;;;17.60;13.35;;;;;;;;;;4965558;28;92987;-70
2022/03/13 10:14:07;;;;;;;15.70;13.15;;;;;;;;;;4962009;28;94872;-71
2022/03/13 10:16:39;;;;;;;19.55;12.88;;;;;;;;;;4966595;28;92467;-71
2022/03/13 10:19:12;;;;;;;27.25;13.35;;;;;;;;;;4965085;28;93890;-71
2022/03/13 10:21:39;;;;;;;19.00;12.98;;;;;;;;;;4959319;28;92706;-71
2022/03/13 10:24:08;;;;;;;17.17;12.80;;;;;;;;;;4961832;28;94088;-71
2022/03/13 10:26:35;;;;;;;20.77;12.48;;;;;;;;;;4971052;28;95960;-71
2022/03/13 10:29:02;;;;;;;18.48;13.35;;;;;;;;;;4970024;28;92603;-70
2022/03/13 10:31:28;;;;;;;18.13;12.93;;;;;;;;;;4970015;28;93081;-71
2022/03/13 10:33:57;;;;;;;18.38;13.13;;;;;;;;;;4970206;28;94157;-71
2022/03/13 10:36:35;;;;;;;19.98;12.05;;;;;;;;;;4960221;28;93398;-71
2022/03/13 10:39:03;;;;;;;18.05;12.75;;;;;;;;;;4972777;28;93296;-71
2022/03/13 10:41:39;;;;;;;16.80;12.48;;;;;;;;;;4971457;28;92419;-71
2022/03/13 10:44:13;;;;;;;18.80;12.48;;;;;;;;;;4964769;28;93315;-71
2022/03/13 10:46:40;;;;;;;13.98;11.80;;;;;;;;;;4971680;28;95986;-71
2022/03/13 10:49:09;;;;;;;14.35;12.13;;;;;;;;;;4963032;28;92695;-71
2022/03/13 10:51:45;;;;;;;26.00;12.30;;;;;;;;;;4970303;28;94771;-71
2022/03/13 10:54:29;;;;;;;14.35;10.93;;;;;;;;;;4969275;28;94611;-70
2022/03/13 10:57:09;;;;;;;19.02;11.18;;;;;;;;;;4971066;28;92598;-70
2022/03/13 10:59:36;;;;;;;17.88;11.73;;;;;;;;;;4972764;28;93573;-70
2022/03/13 11:02:14;;;;;;;19.98;12.07;;;;;;;;;;4969636;28;93818;-70
2022/03/13 11:04:51;;;;;;;15.38;11.73;;;;;;;;;;4968525;28;94243;-70
2022/03/13 11:07:19;;;;;;;13.82;11.85;;;;;;;;;;4960001;28;94688;-70
2022/03/13 11:09:45;;;;;;;14.25;12.23;;;;;;;;;;4984107;28;91720;-70
2022/03/13 11:12:20;;;;;;;19.85;11.43;;;;;;;;;;4990026;28;93040;-71
2022/03/13 11:14:52;;;;;;;14.95;11.82;;;;;;;;;;4972076;28;93424;-71
2022/03/13 11:17:19;;;;;;;15.38;12.40;;;;;;;;;;4970163;28;94798;-71
2022/03/13 11:19:47;;;;;;;15.73;11.90;;;;;;;;;;4988593;28;94341;-71
2022/03/13 11:22:16;;;;;;;17.60;12.38;;;;;;;;;;4974795;28;93511;-71
2022/03/13 11:24:43;;;;;;;13.10;11.38;;;;;;;;;;4974548;28;92693;-70
2022/03/13 11:27:11;;;;;;;14.05;10.95;;;;;;;;;;4970508;28;93494;-70
2022/03/13 11:29:40;;;;;;;15.25;11.38;;;;;;;;;;4956901;28;92501;-71
2022/03/13 11:32:25;;;;;;;17.50;11.77;;;;;;;;;;4952447;28;94578;-71
2022/03/13 11:35:18;;;;;;;16.42;11.00;;;;;;;;;;4952627;28;93272;-71
2022/03/13 11:37:46;;;;;;;17.75;10.80;;;;;;;;;;4963637;28;92551;-71
2022/03/13 11:40:14;;;;;;;12.85;10.98;;;;;;;;;;4971212;28;93245;-70
2022/03/13 11:42:50;;;;;;;17.60;10.63;;;;;;;;;;4970379;28;96159;-71
2022/03/13 11:45:30;;;;;;;11.75;10.52;;;;;;;;;;4958665;28;92394;-71
2022/03/13 11:47:57;;;;;;;12.63;11.35;;;;;;;;;;4970037;28;93809;-71
2022/03/13 11:50:42;;;;;;;13.88;9.80;;;;;;;;;;4971748;28;92389;-71
2022/03/13 11:53:15;;;;;;;14.63;10.43;;;;;;;;;;4959838;28;93174;-71
2022/03/13 11:56:09;;;;;;;13.82;11.02;;;;;;;;;;4966398;28;95248;-71
2022/03/13 11:58:48;;;;;;;18.38;12.15;;;;;;;;;;4970823;28;92438;-71
2022/03/13 12:01:16;;;;;;;14.63;11.65;;;;;;;;;;4970534;28;93778;-70
2022/03/13 12:04:01;;;;;;;15.00;11.63;;;;;;;;;;4971224;28;93539;-71
2022/03/13 12:06:43;;;;;;;17.10;11.93;;;;;;;;;;4971140;28;93870;-71
2022/03/13 12:09:17;;;;;;;11.77;10.27;;;;;;;;;;4971527;28;95754;-71
2022/03/13 12:11:45;;;;;;;11.57;10.43;;;;;;;;;;4953879;28;92471;-71
2022/03/13 12:14:13;;;;;;;11.82;10.63;;;;;;;;;;4969961;28;93091;-71
2022/03/13 12:16:41;;;;;;;12.57;10.35;;;;;;;;;;4971734;28;92608;-71
2022/03/13 12:19:08;;;;;;;20.15;11.65;;;;;;;;;;4971366;28;92961;-71
2022/03/13 12:21:34;;;;;;;14.07;10.57;;;;;;;;;;4960417;28;93284;-70
2022/03/13 12:24:15;;;;;;;13.15;10.07;;;;;;;;;;4969928;28;93252;-71
2022/03/13 12:26:42;;;;;;;15.13;9.95;;;;;;;;;;4971291;28;91831;-71
2022/03/13 12:29:10;;;;;;;14.00;11.02;;;;;;;;;;4975175;28;92386;-71
2022/03/13 12:31:54;;;;;;;11.50;10.30;;;;;;;;;;4970437;28;93260;-71
2022/03/13 12:34:24;;;;;;;10.65;9.32;;;;;;;;;;4949634;28;94837;-71
2022/03/13 12:36:53;;;;;;;13.52;10.52;;;;;;;;;;4962472;28;93500;-71
2022/03/13 12:39:19;;;;;;;11.55;10.13;;;;;;;;;;4973220;28;92882;-71
2022/03/13 12:41:54;;;;;;;11.25;10.07;;;;;;;;;;4973930;28;93348;-71
2022/03/13 12:44:22;;;;;;;12.88;10.15;;;;;;;;;;4972534;28;93624;-70
2022/03/13 12:46:52;;;;;;;19.45;9.40;;;;;;;;;;4974262;28;92476;-71
2022/03/13 12:49:25;;;;;;;13.07;10.43;;;;;;;;;;4990691;28;93206;-71
2022/03/13 12:51:52;;;;;;;11.13;9.50;;;;;;;;;;4973662;28;92745;-71
2022/03/13 12:54:21;;;;;;;14.23;9.30;;;;;;;;;;4976548;28;92625;-71
2022/03/13 12:56:49;;;;;;;13.70;9.73;;;;;;;;;;4973059;28;93490;-71
2022/03/13 12:59:29;;;;;;;10.68;9.57;;;;;;;;;;4973029;28;94965;-71
2022/03/13 13:02:15;;;;;;;13.07;10.20;;;;;;;;;;4974680;28;96570;-71
2022/03/13 13:04:47;;;;;;;12.73;9.55;;;;;;;;;;4973158;28;94405;-71
2022/03/13 13:07:14;;;;;;;14.68;10.40;;;;;;;;;;4973210;28;93079;-71
2022/03/13 13:09:42;;;;;;;13.25;9.90;;;;;;;;;;4972639;28;92530;-71
2022/03/13 13:12:09;;;;;;;13.10;9.57;;;;;;;;;;4972794;28;93466;-72
2022/03/13 13:14:36;;;;;;;15.65;9.27;;;;;;;;;;4964098;28;92603;-72
2022/03/13 13:17:24;;;;;;;12.52;8.93;;;;;;;;;;4965798;28;93410;-71
2022/03/13 13:19:52;;;;;;;10.95;8.80;;;;;;;;;;4974227;28;92339;-71
2022/03/13 13:22:27;;;;;;;10.27;9.20;;;;;;;;;;4970847;28;94268;-72
2022/03/13 13:24:58;;;;;;;10.02;8.95;;;;;;;;;;4970761;28;95632;-72
2022/03/13 13:27:30;;;;;;;11.95;8.25;;;;;;;;;;4967391;28;92754;-72
2022/03/13 13:29:57;;;;;;;10.73;8.43;;;;;;;;;;4954766;28;93060;-72
2022/03/13 13:32:32;;;;;;;12.35;8.68;;;;;;;;;;4969304;28;94288;-71
2022/03/13 13:35:08;;;;;;;9.77;7.65;;;;;;;;;;4963019;28;93140;-71
2022/03/13 13:37:36;;;;;;;10.30;7.95;;;;;;;;;;4975679;28;94119;-71
2022/03/13 13:40:04;;;;;;;8.85;7.40;;;;;;;;;;4974183;28;92409;-71
2022/03/13 13:42:32;;;;;;;9.13;7.63;;;;;;;;;;4974108;28;93602;-71
2022/03/13 13:44:59;;;;;;;12.55;7.20;;;;;;;;;;4973236;28;93614;-71
2022/03/13 13:47:26;;;;;;;10.98;7.00;;;;;;;;;;4971461;28;92406;-71
2022/03/13 13:49:52;;;;;;;11.65;6.68;;;;;;;;;;4972486;28;94831;-71
2022/03/13 13:52:27;;;;;;;11.07;7.53;;;;;;;;;;4969889;28;93521;-70
2022/03/13 13:54:53;;;;;;;11.20;7.60;;;;;;;;;;4965264;28;92853;-70
2022/03/13 13:57:22;;;;;;;11.40;7.28;;;;;;;;;;4961838;28;93185;-70
2022/03/13 13:59:49;;;;;;;10.48;8.20;;;;;;;;;;4957465;28;93229;-70
2022/03/13 14:02:17;;;;;;;12.55;8.73;;;;;;;;;;4972880;28;93224;-70
2022/03/13 14:04:47;;;;;;;11.20;8.43;;;;;;;;;;4970915;28;93361;-70
2022/03/13 14:07:13;;;;;;;21.73;8.90;;;;;;;;;;4974245;28;91958;-70
2022/03/13 14:09:40;;;;;;;26.40;10.27;;;;;;;;;;4973068;28;92562;-70
2022/03/13 14:12:07;;;;;;;13.98;9.60;;;;;;;;;;4969178;28;93608;-71
2022/03/13 14:14:34;;;;;;;14.15;9.68;;;;;;;;;;4971779;28;95138;-70
2022/03/13 14:17:01;;;;;;;14.52;10.40;;;;;;;;;;4973760;28;96074;-70
2022/03/13 14:19:28;;;;;;;14.25;9.77;;;;;;;;;;4969951;28;93832;-71
2022/03/13 14:21:56;;;;;;;13.65;9.45;;;;;;;;;;4974798;28;92592;-71
2022/03/13 14:24:22;;;;;;;12.48;8.98;;;;;;;;;;4973377;28;93557;-74
2022/03/13 14:26:49;;;;;;;12.40;10.02;;;;;;;;;;4969768;28;92533;-71
2022/03/13 14:29:16;;;;;;;12.60;10.30;;;;;;;;;;4957195;28;96640;-72